createdAt,value
2018-05-25T00:01:27.484Z,17.20
2018-05-25T00:03:55.007Z,17.33
2018-05-25T00:06:22.514Z,16.30
2018-05-25T00:08:51.533Z,18.43
2018-05-25T00:11:19.472Z,19.07
2018-05-25T00:13:48.315Z,20.23
2018-05-25T00:16:16.092Z,17.50
2018-05-25T00:18:43.601Z,19.20
2018-05-25T00:21:11.125Z,17.77
2018-05-25T00:23:38.625Z,16.50
2018-05-25T00:26:06.125Z,16.77
2018-05-25T00:28:33.652Z,17.03
2018-05-25T00:31:01.159Z,18.40
2018-05-25T00:33:29.154Z,17.83
2018-05-25T00:35:56.650Z,17.83
2018-05-25T00:38:24.148Z,17.13
2018-05-25T00:40:51.663Z,16.73
2018-05-25T00:43:19.624Z,17.53
2018-05-25T00:45:47.346Z,17.53
2018-05-25T00:48:14.844Z,18.53
2018-05-25T00:50:42.348Z,16.40
2018-05-25T00:53:09.869Z,16.63
2018-05-25T00:55:39.051Z,16.90
2018-05-25T00:58:06.590Z,16.80
2018-05-25T01:00:34.089Z,17.10
2018-05-25T01:03:01.592Z,16.87
2018-05-25T01:05:29.236Z,18.77
2018-05-25T01:07:56.733Z,21.00
2018-05-25T01:10:24.257Z,21.27
2018-05-25T01:12:51.753Z,21.67
2018-05-25T01:15:19.252Z,16.23
2018-05-25T01:17:46.771Z,16.97
2018-05-25T01:20:15.060Z,18.90
2018-05-25T01:22:42.588Z,18.37
2018-05-25T01:25:11.388Z,20.00
2018-05-25T01:27:38.892Z,20.30
2018-05-25T01:30:06.420Z,22.53
2018-05-25T01:32:33.962Z,20.07
2018-05-25T01:35:01.496Z,19.67
2018-05-25T01:37:29.198Z,20.20
2018-05-25T01:39:56.701Z,20.47
2018-05-25T01:42:25.584Z,18.07
2018-05-25T01:44:53.953Z,18.30
2018-05-25T01:47:21.468Z,20.23
2018-05-25T01:49:49.407Z,21.07
2018-05-25T01:52:16.906Z,21.70
2018-05-25T01:54:45.235Z,22.53
2018-05-25T01:57:12.731Z,19.43
2018-05-25T01:59:40.571Z,20.50
2018-05-25T02:02:08.069Z,20.07
2018-05-25T02:04:35.956Z,24.63
2018-05-25T02:07:03.493Z,25.60
2018-05-25T02:09:30.991Z,25.03
2018-05-25T02:11:58.507Z,20.37
2018-05-25T02:14:26.007Z,21.43
2018-05-25T02:16:54.240Z,20.07
2018-05-25T02:19:21.764Z,20.20
2018-05-25T02:21:50.049Z,18.33
2018-05-25T02:24:17.571Z,17.77
2018-05-25T02:26:45.101Z,18.47
2018-05-25T02:29:12.587Z,21.83
2018-05-25T02:31:40.110Z,23.07
2018-05-25T02:34:07.603Z,23.50
2018-05-25T02:36:35.120Z,24.37
2018-05-25T02:39:02.643Z,24.07
2018-05-25T02:41:30.147Z,23.43
2018-05-25T02:43:57.688Z,24.23
2018-05-25T02:46:25.188Z,25.60
2018-05-25T02:48:52.883Z,25.17
2018-05-25T02:51:20.379Z,25.00
2018-05-25T02:53:47.885Z,22.07
2018-05-25T02:56:15.408Z,19.97
2018-05-25T02:58:42.904Z,21.13
2018-05-25T03:01:10.432Z,23.03
2018-05-25T03:03:37.995Z,22.80
2018-05-25T03:06:06.255Z,22.13
2018-05-25T03:08:33.784Z,20.47
2018-05-25T03:11:01.316Z,22.40
2018-05-25T03:13:28.835Z,20.17
2018-05-25T03:15:56.340Z,20.33
2018-05-25T03:18:23.864Z,19.20
2018-05-25T03:20:52.099Z,21.90
2018-05-25T03:23:19.596Z,22.90
2018-05-25T03:25:47.121Z,21.30
2018-05-25T03:28:14.614Z,19.63
2018-05-25T03:30:42.572Z,18.37
2018-05-25T03:33:11.164Z,20.27
2018-05-25T03:35:38.667Z,20.13
2018-05-25T03:38:06.193Z,20.67
2018-05-25T03:40:33.687Z,22.83
2018-05-25T03:43:01.183Z,21.50
2018-05-25T03:45:29.166Z,20.43
2018-05-25T03:47:56.667Z,21.20
2018-05-25T03:50:24.187Z,20.67
2018-05-25T03:52:52.123Z,22.00
2018-05-25T03:55:20.064Z,20.67
2018-05-25T03:57:47.577Z,22.17
2018-05-25T04:00:26.749Z,20.90
2018-05-25T04:02:54.267Z,20.53
2018-05-25T04:05:21.774Z,20.43
2018-05-25T04:07:49.300Z,19.13
2018-05-25T04:10:16.800Z,19.10
2018-05-25T04:12:44.304Z,19.23
2018-05-25T04:15:11.828Z,20.10
2018-05-25T04:17:39.336Z,23.37
2018-05-25T04:20:06.860Z,23.70
2018-05-25T04:22:34.804Z,20.77
2018-05-25T04:25:02.749Z,20.63
2018-05-25T04:27:30.273Z,20.07
2018-05-25T04:29:57.777Z,19.47
2018-05-25T04:32:25.865Z,21.63
2018-05-25T04:34:53.364Z,21.57
2018-05-25T04:37:20.864Z,20.27
2018-05-25T04:39:48.407Z,21.57
2018-05-25T04:42:15.910Z,21.17
2018-05-25T04:44:44.252Z,23.17
2018-05-25T04:47:11.748Z,25.13
2018-05-25T04:49:39.244Z,24.17
2018-05-25T04:52:06.770Z,25.27
2018-05-25T04:54:35.176Z,26.83
2018-05-25T04:57:02.707Z,24.27
2018-05-25T04:59:30.540Z,24.17
2018-05-25T05:01:58.040Z,25.53
2018-05-25T05:04:25.568Z,23.67
2018-05-25T05:06:53.062Z,24.23
2018-05-25T05:09:20.599Z,24.33
2018-05-25T05:11:48.097Z,23.23
2018-05-25T05:14:15.592Z,23.40
2018-05-25T05:16:43.125Z,23.73
2018-05-25T05:19:10.620Z,22.60
2018-05-25T05:21:38.144Z,24.23
2018-05-25T05:24:06.076Z,23.70
2018-05-25T05:26:33.575Z,21.97
2018-05-25T05:29:01.096Z,20.83
2018-05-25T05:31:28.860Z,20.77
2018-05-25T05:33:56.383Z,20.80
2018-05-25T05:36:23.889Z,22.20
2018-05-25T05:38:51.398Z,20.90
2018-05-25T05:41:18.921Z,21.37
2018-05-25T05:43:46.411Z,24.27
2018-05-25T05:46:15.189Z,22.63
2018-05-25T05:48:42.683Z,23.90
2018-05-25T05:51:10.195Z,25.23
2018-05-25T05:53:37.699Z,25.30
2018-05-25T05:56:05.948Z,25.13
2018-05-25T05:58:35.968Z,25.17
2018-05-25T06:01:03.476Z,24.20
2018-05-25T06:03:31.032Z,25.77
2018-05-25T06:05:58.515Z,25.53
2018-05-25T06:08:26.013Z,25.90
2018-05-25T06:10:53.533Z,25.47
2018-05-25T06:13:21.030Z,26.17
2018-05-25T06:15:48.551Z,26.43
2018-05-25T06:18:16.047Z,24.73
2018-05-25T06:20:43.545Z,25.03
2018-05-25T06:23:11.063Z,23.97
2018-05-25T06:25:38.566Z,26.37
2018-05-25T06:28:06.069Z,24.77
2018-05-25T06:30:33.587Z,26.03
2018-05-25T06:33:01.086Z,28.53
2018-05-25T06:35:28.612Z,31.10
2018-05-25T06:37:56.121Z,26.43
2018-05-25T06:40:23.635Z,30.83
2018-05-25T06:42:51.153Z,26.30
2018-05-25T06:45:18.668Z,31.23
2018-05-25T06:47:46.164Z,29.67
2018-05-25T06:50:13.686Z,27.97
2018-05-25T06:52:41.751Z,26.20
2018-05-25T06:55:09.272Z,27.73
2018-05-25T06:57:36.769Z,26.77
2018-05-25T07:00:04.263Z,26.80
2018-05-25T07:02:31.781Z,23.50
2018-05-25T07:04:59.276Z,24.70
2018-05-25T07:07:26.804Z,24.73
2018-05-25T07:09:54.300Z,24.63
2018-05-25T07:12:21.790Z,25.70
2018-05-25T07:14:49.311Z,25.43
2018-05-25T07:17:19.715Z,27.07
2018-05-25T07:19:47.268Z,22.93
2018-05-25T07:22:14.781Z,24.13
2018-05-25T07:24:42.882Z,22.77
2018-05-25T07:27:10.377Z,23.97
2018-05-25T07:29:37.883Z,25.67
2018-05-25T07:32:05.781Z,25.20
2018-05-25T07:34:33.409Z,25.63
2018-05-25T07:37:01.050Z,24.63
2018-05-25T07:39:28.597Z,25.37
2018-05-25T07:41:56.201Z,24.83
2018-05-25T07:44:23.854Z,25.00
2018-05-25T07:46:51.351Z,25.93
2018-05-25T07:49:18.893Z,28.87
2018-05-25T07:51:46.437Z,29.53
2018-05-25T07:54:13.933Z,27.80
2018-05-25T07:56:41.451Z,28.57
2018-05-25T07:59:08.952Z,27.53
2018-05-25T08:01:36.472Z,29.07
2018-05-25T08:04:03.987Z,29.77
2018-05-25T08:06:31.491Z,29.20
2018-05-25T08:08:59.010Z,30.23
2018-05-25T08:11:26.522Z,29.13
2018-05-25T08:13:54.051Z,28.77
2018-05-25T08:16:22.003Z,27.93
2018-05-25T08:18:49.507Z,30.17
2018-05-25T08:21:17.036Z,27.17
2018-05-25T08:23:44.535Z,27.03
2018-05-25T08:26:12.060Z,28.33
2018-05-25T08:28:39.578Z,29.97
2018-05-25T08:31:07.767Z,26.43
2018-05-25T08:33:35.288Z,29.53
2018-05-25T08:36:03.697Z,29.37
2018-05-25T08:38:31.988Z,28.60
2018-05-25T08:40:59.480Z,27.40
2018-05-25T08:43:26.979Z,29.90
2018-05-25T08:45:55.372Z,28.83
2018-05-25T08:48:23.453Z,28.20
2018-05-25T08:50:50.952Z,28.23
2018-05-25T08:53:18.747Z,27.87
2018-05-25T08:55:46.308Z,25.70
2018-05-25T08:58:14.369Z,27.73
2018-05-25T09:00:43.242Z,24.70
2018-05-25T09:03:11.141Z,28.27
2018-05-25T09:05:39.112Z,27.90
2018-05-25T09:08:07.515Z,26.27
2018-05-25T09:10:35.015Z,27.03
2018-05-25T09:13:02.535Z,25.23
2018-05-25T09:15:30.500Z,26.53
2018-05-25T09:17:58.026Z,27.07
2018-05-25T09:20:26.383Z,24.53
2018-05-25T09:22:54.476Z,26.70
2018-05-25T09:25:22.171Z,26.10
2018-05-25T09:27:50.252Z,27.03
2018-05-25T09:30:17.767Z,26.53
2018-05-25T09:32:45.262Z,24.53
2018-05-25T09:35:12.759Z,26.67
2018-05-25T09:37:40.286Z,25.50
2018-05-25T09:40:08.340Z,25.20
2018-05-25T09:42:35.868Z,29.23
2018-05-25T09:45:03.364Z,26.20
2018-05-25T09:47:30.860Z,29.50
2018-05-25T09:49:58.379Z,31.77
2018-05-25T09:52:25.873Z,28.40
2018-05-25T09:54:53.463Z,31.43
2018-05-25T09:57:20.960Z,30.90
2018-05-25T09:59:48.474Z,30.33
2018-05-25T10:02:15.964Z,29.47
2018-05-25T10:04:43.460Z,27.60
2018-05-25T10:07:10.981Z,26.60
2018-05-25T10:09:38.476Z,27.43
2018-05-25T10:12:06.467Z,27.70
2018-05-25T10:14:34.436Z,26.00
2018-05-25T10:17:01.932Z,27.53
2018-05-25T10:19:29.459Z,24.90
2018-05-25T10:21:56.989Z,28.07
2018-05-25T10:24:24.511Z,28.20
2018-05-25T10:26:52.006Z,26.90
2018-05-25T10:29:19.503Z,24.57
2018-05-25T10:31:47.594Z,26.40
2018-05-25T10:34:15.112Z,26.17
2018-05-25T10:36:42.640Z,26.97
2018-05-25T10:39:10.147Z,26.80
2018-05-25T10:41:37.648Z,28.67
2018-05-25T10:44:05.168Z,29.87
2018-05-25T10:46:32.667Z,28.13
2018-05-25T10:49:00.183Z,28.10
2018-05-25T10:51:27.685Z,29.70
2018-05-25T10:53:55.180Z,30.00
2018-05-25T10:56:23.011Z,31.27
2018-05-25T10:58:50.507Z,26.67
2018-05-25T11:01:19.588Z,26.53
2018-05-25T11:03:48.564Z,28.33
2018-05-25T11:06:16.092Z,25.07
2018-05-25T11:08:43.628Z,25.47
2018-05-25T11:11:11.347Z,26.63
2018-05-25T11:13:38.871Z,25.60
2018-05-25T11:16:06.380Z,24.40
2018-05-25T11:18:34.353Z,24.10
2018-05-25T11:21:01.948Z,23.47
2018-05-25T11:26:20.093Z,25.43
2018-05-25T11:28:48.731Z,24.73
2018-05-25T11:31:16.801Z,24.90
2018-05-25T11:33:44.326Z,23.73
2018-05-25T11:36:11.839Z,22.40
2018-05-25T11:38:40.292Z,25.50
2018-05-25T11:41:07.797Z,27.00
2018-05-25T11:43:35.398Z,26.20
2018-05-25T11:46:02.940Z,21.17
2018-05-25T11:48:31.194Z,21.00
2018-05-25T11:50:58.798Z,18.57
